sensor_id;sensor_type;location;lat;lon;timestamp;P1;durP1;ratioP1;P2;durP2;ratioP2
23394;SDS011;11870;53.084;18.206;2023-05-10T00:00:28;5.05;;;3.40;;
23394;SDS011;11870;53.084;18.206;2023-05-10T00:03:10;6.50;;;3.45;;
23394;SDS011;11870;53.084;18.206;2023-05-10T00:05:36;8.27;;;3.63;;
23394;SDS011;11870;53.084;18.206;2023-05-10T00:08:02;6.70;;;3.42;;
23394;SDS011;11870;53.084;18.206;2023-05-10T00:10:28;5.68;;;3.20;;
23394;SDS011;11870;53.084;18.206;2023-05-10T00:12:54;5.45;;;3.65;;
23394;SDS011;11870;53.084;18.206;2023-05-10T00:15:20;5.38;;;3.13;;
23394;SDS011;11870;53.084;18.206;2023-05-10T00:17:46;6.80;;;3.42;;
23394;SDS011;11870;53.084;18.206;2023-05-10T00:20:12;5.40;;;3.28;;
23394;SDS011;11870;53.084;18.206;2023-05-10T00:22:38;6.00;;;3.70;;
23394;SDS011;11870;53.084;18.206;2023-05-10T00:25:05;8.15;;;3.75;;
23394;SDS011;11870;53.084;18.206;2023-05-10T00:27:31;11.45;;;3.75;;
23394;SDS011;11870;53.084;18.206;2023-05-10T00:29:57;6.10;;;3.47;;
23394;SDS011;11870;53.084;18.206;2023-05-10T00:32:23;7.07;;;3.75;;
23394;SDS011;11870;53.084;18.206;2023-05-10T00:34:49;7.03;;;3.55;;
23394;SDS011;11870;53.084;18.206;2023-05-10T00:37:15;8.82;;;4.03;;
23394;SDS011;11870;53.084;18.206;2023-05-10T00:39:41;6.88;;;3.80;;
23394;SDS011;11870;53.084;18.206;2023-05-10T00:42:07;9.15;;;3.90;;
23394;SDS011;11870;53.084;18.206;2023-05-10T00:44:33;7.05;;;3.78;;
23394;SDS011;11870;53.084;18.206;2023-05-10T00:46:59;9.75;;;4.03;;
23394;SDS011;11870;53.084;18.206;2023-05-10T00:49:25;7.25;;;3.95;;
23394;SDS011;11870;53.084;18.206;2023-05-10T00:51:51;6.50;;;3.80;;
23394;SDS011;11870;53.084;18.206;2023-05-10T00:54:18;8.55;;;4.35;;
23394;SDS011;11870;53.084;18.206;2023-05-10T00:56:44;6.50;;;3.58;;
23394;SDS011;11870;53.084;18.206;2023-05-10T00:59:15;5.47;;;3.50;;
23394;SDS011;11870;53.084;18.206;2023-05-10T01:01:47;6.68;;;4.10;;
23394;SDS011;11870;53.084;18.206;2023-05-10T01:04:14;5.95;;;3.55;;
23394;SDS011;11870;53.084;18.206;2023-05-10T01:06:40;8.05;;;4.38;;
23394;SDS011;11870;53.084;18.206;2023-05-10T01:09:07;9.02;;;4.00;;
23394;SDS011;11870;53.084;18.206;2023-05-10T01:11:36;10.40;;;5.00;;
23394;SDS011;11870;53.084;18.206;2023-05-10T01:14:05;7.35;;;4.10;;
23394;SDS011;11870;53.084;18.206;2023-05-10T01:16:32;5.53;;;3.95;;
23394;SDS011;11870;53.084;18.206;2023-05-10T01:19:03;9.65;;;4.57;;
23394;SDS011;11870;53.084;18.206;2023-05-10T01:22:11;9.05;;;4.80;;
23394;SDS011;11870;53.084;18.206;2023-05-10T01:24:59;9.40;;;4.95;;
23394;SDS011;11870;53.084;18.206;2023-05-10T01:27:47;8.35;;;4.78;;
23394;SDS011;11870;53.084;18.206;2023-05-10T01:33:04;10.40;;;4.70;;
23394;SDS011;11870;53.084;18.206;2023-05-10T01:35:41;9.32;;;4.88;;
23394;SDS011;11870;53.084;18.206;2023-05-10T01:43:55;8.60;;;4.13;;
23394;SDS011;11870;53.084;18.206;2023-05-10T01:46:36;6.97;;;4.22;;
23394;SDS011;11870;53.084;18.206;2023-05-10T01:49:07;9.38;;;4.18;;
23394;SDS011;11870;53.084;18.206;2023-05-10T01:51:36;7.45;;;3.83;;
23394;SDS011;11870;53.084;18.206;2023-05-10T01:54:06;7.20;;;3.88;;
23394;SDS011;11870;53.084;18.206;2023-05-10T01:56:35;10.60;;;4.03;;
23394;SDS011;11870;53.084;18.206;2023-05-10T01:59:04;6.75;;;3.83;;
23394;SDS011;11870;53.084;18.206;2023-05-10T02:01:34;7.88;;;3.75;;
23394;SDS011;11870;53.084;18.206;2023-05-10T02:04:01;7.45;;;4.03;;
23394;SDS011;11870;53.084;18.206;2023-05-10T02:06:28;8.73;;;4.20;;
23394;SDS011;11870;53.084;18.206;2023-05-10T02:08:54;8.13;;;4.15;;
23394;SDS011;11870;53.084;18.206;2023-05-10T02:11:21;7.20;;;3.88;;
23394;SDS011;11870;53.084;18.206;2023-05-10T02:13:49;9.63;;;4.47;;
23394;SDS011;11870;53.084;18.206;2023-05-10T02:16:17;7.90;;;4.22;;
23394;SDS011;11870;53.084;18.206;2023-05-10T02:18:45;8.98;;;3.95;;
23394;SDS011;11870;53.084;18.206;2023-05-10T02:21:13;8.07;;;4.38;;
23394;SDS011;11870;53.084;18.206;2023-05-10T02:23:41;7.50;;;4.38;;
23394;SDS011;11870;53.084;18.206;2023-05-10T02:26:08;8.52;;;4.78;;
23394;SDS011;11870;53.084;18.206;2023-05-10T02:28:37;11.13;;;4.88;;
23394;SDS011;11870;53.084;18.206;2023-05-10T02:31:03;6.82;;;3.90;;
23394;SDS011;11870;53.084;18.206;2023-05-10T02:33:31;8.77;;;3.80;;
23394;SDS011;11870;53.084;18.206;2023-05-10T02:35:59;7.25;;;4.10;;
23394;SDS011;11870;53.084;18.206;2023-05-10T02:38:27;9.77;;;3.97;;
23394;SDS011;11870;53.084;18.206;2023-05-10T02:40:55;7.85;;;4.03;;
23394;SDS011;11870;53.084;18.206;2023-05-10T02:43:23;9.25;;;4.20;;
23394;SDS011;11870;53.084;18.206;2023-05-10T02:45:51;12.80;;;4.32;;
23394;SDS011;11870;53.084;18.206;2023-05-10T02:48:17;6.90;;;4.00;;
23394;SDS011;11870;53.084;18.206;2023-05-10T02:50:44;9.40;;;4.50;;
23394;SDS011;11870;53.084;18.206;2023-05-10T02:53:11;7.07;;;3.95;;
23394;SDS011;11870;53.084;18.206;2023-05-10T02:55:44;12.02;;;4.18;;
23394;SDS011;11870;53.084;18.206;2023-05-10T02:58:13;8.63;;;4.13;;
23394;SDS011;11870;53.084;18.206;2023-05-10T03:00:40;10.30;;;4.38;;
23394;SDS011;11870;53.084;18.206;2023-05-10T03:03:06;7.85;;;4.10;;
23394;SDS011;11870;53.084;18.206;2023-05-10T03:05:32;9.43;;;4.20;;
23394;SDS011;11870;53.084;18.206;2023-05-10T03:07:58;6.80;;;4.25;;
23394;SDS011;11870;53.084;18.206;2023-05-10T03:10:27;6.95;;;3.92;;
23394;SDS011;11870;53.084;18.206;2023-05-10T03:13:15;5.88;;;4.10;;
23394;SDS011;11870;53.084;18.206;2023-05-10T03:16:02;8.57;;;3.95;;
23394;SDS011;11870;53.084;18.206;2023-05-10T03:19:22;8.90;;;4.10;;
23394;SDS011;11870;53.084;18.206;2023-05-10T03:21:40;9.27;;;4.32;;
23394;SDS011;11870;53.084;18.206;2023-05-10T03:24:09;5.90;;;3.65;;
23394;SDS011;11870;53.084;18.206;2023-05-10T03:26:40;7.40;;;4.32;;
23394;SDS011;11870;53.084;18.206;2023-05-10T03:29:10;8.18;;;4.32;;
23394;SDS011;11870;53.084;18.206;2023-05-10T03:31:38;8.73;;;4.38;;
23394;SDS011;11870;53.084;18.206;2023-05-10T03:34:04;7.53;;;4.75;;
23394;SDS011;11870;53.084;18.206;2023-05-10T03:36:30;8.02;;;4.57;;
23394;SDS011;11870;53.084;18.206;2023-05-10T03:38:56;7.28;;;4.53;;
23394;SDS011;11870;53.084;18.206;2023-05-10T03:41:22;9.77;;;4.72;;
23394;SDS011;11870;53.084;18.206;2023-05-10T03:43:48;9.75;;;4.75;;
23394;SDS011;11870;53.084;18.206;2023-05-10T03:46:14;7.47;;;4.50;;
23394;SDS011;11870;53.084;18.206;2023-05-10T03:48:40;10.75;;;4.25;;
23394;SDS011;11870;53.084;18.206;2023-05-10T03:51:06;6.82;;;4.32;;
23394;SDS011;11870;53.084;18.206;2023-05-10T03:53:32;6.45;;;3.90;;
23394;SDS011;11870;53.084;18.206;2023-05-10T03:56:01;8.82;;;4.10;;
23394;SDS011;11870;53.084;18.206;2023-05-10T03:58:27;8.77;;;4.07;;
23394;SDS011;11870;53.084;18.206;2023-05-10T04:00:53;10.80;;;4.07;;
23394;SDS011;11870;53.084;18.206;2023-05-10T04:03:19;10.23;;;4.03;;
23394;SDS011;11870;53.084;18.206;2023-05-10T04:05:45;6.88;;;4.07;;
23394;SDS011;11870;53.084;18.206;2023-05-10T04:08:11;10.85;;;4.40;;
23394;SDS011;11870;53.084;18.206;2023-05-10T04:10:37;7.25;;;4.10;;
23394;SDS011;11870;53.084;18.206;2023-05-10T04:13:03;7.03;;;3.83;;
23394;SDS011;11870;53.084;18.206;2023-05-10T04:15:29;11.48;;;4.03;;
23394;SDS011;11870;53.084;18.206;2023-05-10T04:17:55;7.45;;;4.88;;
23394;SDS011;11870;53.084;18.206;2023-05-10T04:20:21;7.90;;;4.18;;
23394;SDS011;11870;53.084;18.206;2023-05-10T04:22:47;10.50;;;5.00;;
23394;SDS011;11870;53.084;18.206;2023-05-10T04:25:13;6.97;;;3.60;;
23394;SDS011;11870;53.084;18.206;2023-05-10T04:27:39;5.30;;;3.53;;
23394;SDS011;11870;53.084;18.206;2023-05-10T04:30:05;6.28;;;3.95;;
23394;SDS011;11870;53.084;18.206;2023-05-10T04:32:32;8.23;;;3.38;;
23394;SDS011;11870;53.084;18.206;2023-05-10T04:34:58;6.63;;;4.00;;
23394;SDS011;11870;53.084;18.206;2023-05-10T04:37:24;5.72;;;3.70;;
23394;SDS011;11870;53.084;18.206;2023-05-10T04:39:50;8.52;;;3.95;;
23394;SDS011;11870;53.084;18.206;2023-05-10T04:42:16;5.20;;;3.50;;
23394;SDS011;11870;53.084;18.206;2023-05-10T04:44:42;5.95;;;3.70;;
23394;SDS011;11870;53.084;18.206;2023-05-10T04:47:08;6.65;;;3.50;;
23394;SDS011;11870;53.084;18.206;2023-05-10T04:49:34;5.45;;;3.50;;
23394;SDS011;11870;53.084;18.206;2023-05-10T04:52:00;4.65;;;3.60;;
23394;SDS011;11870;53.084;18.206;2023-05-10T04:54:26;7.35;;;3.67;;
23394;SDS011;11870;53.084;18.206;2023-05-10T04:56:52;7.03;;;3.33;;
23394;SDS011;11870;53.084;18.206;2023-05-10T04:59:18;6.00;;;3.55;;
23394;SDS011;11870;53.084;18.206;2023-05-10T05:01:44;5.35;;;3.55;;
23394;SDS011;11870;53.084;18.206;2023-05-10T05:04:10;6.65;;;3.38;;
23394;SDS011;11870;53.084;18.206;2023-05-10T05:06:36;6.30;;;3.58;;
23394;SDS011;11870;53.084;18.206;2023-05-10T05:09:02;5.38;;;3.50;;
23394;SDS011;11870;53.084;18.206;2023-05-10T05:11:28;6.97;;;3.72;;
23394;SDS011;11870;53.084;18.206;2023-05-10T05:13:54;6.15;;;3.40;;
23394;SDS011;11870;53.084;18.206;2023-05-10T05:16:20;6.50;;;3.50;;
23394;SDS011;11870;53.084;18.206;2023-05-10T05:18:46;7.78;;;3.65;;
23394;SDS011;11870;53.084;18.206;2023-05-10T05:21:18;7.55;;;3.45;;
23394;SDS011;11870;53.084;18.206;2023-05-10T05:23:45;5.00;;;2.92;;
23394;SDS011;11870;53.084;18.206;2023-05-10T05:26:11;8.88;;;3.55;;
23394;SDS011;11870;53.084;18.206;2023-05-10T05:28:37;4.97;;;3.50;;
23394;SDS011;11870;53.084;18.206;2023-05-10T05:31:04;6.25;;;3.15;;
23394;SDS011;11870;53.084;18.206;2023-05-10T05:33:31;5.32;;;3.15;;
23394;SDS011;11870;53.084;18.206;2023-05-10T05:35:56;5.80;;;2.90;;
23394;SDS011;11870;53.084;18.206;2023-05-10T05:38:22;5.28;;;3.22;;
23394;SDS011;11870;53.084;18.206;2023-05-10T05:40:48;5.65;;;3.05;;
23394;SDS011;11870;53.084;18.206;2023-05-10T05:43:14;4.18;;;2.83;;
23394;SDS011;11870;53.084;18.206;2023-05-10T05:45:40;5.22;;;3.17;;
23394;SDS011;11870;53.084;18.206;2023-05-10T05:48:06;5.38;;;3.13;;
23394;SDS011;11870;53.084;18.206;2023-05-10T05:50:32;4.50;;;2.80;;
23394;SDS011;11870;53.084;18.206;2023-05-10T05:52:58;4.57;;;3.08;;
23394;SDS011;11870;53.084;18.206;2023-05-10T05:55:24;6.57;;;3.17;;
23394;SDS011;11870;53.084;18.206;2023-05-10T05:57:51;7.22;;;2.90;;
23394;SDS011;11870;53.084;18.206;2023-05-10T06:00:17;4.18;;;2.78;;
23394;SDS011;11870;53.084;18.206;2023-05-10T06:02:43;10.30;;;2.90;;
23394;SDS011;11870;53.084;18.206;2023-05-10T06:05:09;5.93;;;2.80;;
23394;SDS011;11870;53.084;18.206;2023-05-10T06:07:35;4.90;;;2.60;;
23394;SDS011;11870;53.084;18.206;2023-05-10T06:10:01;6.55;;;2.63;;
23394;SDS011;11870;53.084;18.206;2023-05-10T06:12:28;4.03;;;2.60;;
23394;SDS011;11870;53.084;18.206;2023-05-10T06:14:53;5.85;;;2.90;;
23394;SDS011;11870;53.084;18.206;2023-05-10T06:17:20;5.72;;;2.50;;
23394;SDS011;11870;53.084;18.206;2023-05-10T06:19:50;3.85;;;2.50;;
23394;SDS011;11870;53.084;18.206;2023-05-10T06:22:19;7.75;;;2.58;;
23394;SDS011;11870;53.084;18.206;2023-05-10T06:24:45;3.15;;;2.47;;
23394;SDS011;11870;53.084;18.206;2023-05-10T06:27:16;5.10;;;2.50;;
23394;SDS011;11870;53.084;18.206;2023-05-10T06:29:42;8.73;;;2.88;;
23394;SDS011;11870;53.084;18.206;2023-05-10T06:32:08;5.10;;;2.28;;
23394;SDS011;11870;53.084;18.206;2023-05-10T06:34:34;6.13;;;2.80;;
23394;SDS011;11870;53.084;18.206;2023-05-10T06:37:03;5.88;;;2.83;;
23394;SDS011;11870;53.084;18.206;2023-05-10T06:39:28;3.03;;;2.50;;
23394;SDS011;11870;53.084;18.206;2023-05-10T06:41:55;4.50;;;2.10;;
23394;SDS011;11870;53.084;18.206;2023-05-10T06:44:20;2.72;;;2.30;;
23394;SDS011;11870;53.084;18.206;2023-05-10T06:46:46;4.75;;;2.15;;
23394;SDS011;11870;53.084;18.206;2023-05-10T06:49:12;3.83;;;2.10;;
23394;SDS011;11870;53.084;18.206;2023-05-10T06:51:39;3.63;;;2.50;;
23394;SDS011;11870;53.084;18.206;2023-05-10T06:54:05;5.70;;;2.58;;
23394;SDS011;11870;53.084;18.206;2023-05-10T06:56:31;5.32;;;2.50;;
23394;SDS011;11870;53.084;18.206;2023-05-10T06:58:57;6.40;;;2.50;;
23394;SDS011;11870;53.084;18.206;2023-05-10T07:01:23;9.48;;;2.63;;
23394;SDS011;11870;53.084;18.206;2023-05-10T07:03:49;5.78;;;2.50;;
23394;SDS011;11870;53.084;18.206;2023-05-10T07:06:16;4.82;;;2.13;;
23394;SDS011;11870;53.084;18.206;2023-05-10T07:08:41;4.45;;;2.83;;
23394;SDS011;11870;53.084;18.206;2023-05-10T07:11:07;4.25;;;2.58;;
23394;SDS011;11870;53.084;18.206;2023-05-10T07:13:33;3.45;;;2.58;;
23394;SDS011;11870;53.084;18.206;2023-05-10T07:16:00;14.55;;;2.78;;
23394;SDS011;11870;53.084;18.206;2023-05-10T07:18:27;9.95;;;2.40;;
23394;SDS011;11870;53.084;18.206;2023-05-10T07:20:53;8.05;;;2.60;;
23394;SDS011;11870;53.084;18.206;2023-05-10T07:23:19;4.72;;;2.20;;
23394;SDS011;11870;53.084;18.206;2023-05-10T07:25:46;3.50;;;2.22;;
23394;SDS011;11870;53.084;18.206;2023-05-10T07:28:13;5.07;;;2.45;;
23394;SDS011;11870;53.084;18.206;2023-05-10T07:30:40;6.75;;;2.55;;
23394;SDS011;11870;53.084;18.206;2023-05-10T07:33:06;2.85;;;2.33;;
23394;SDS011;11870;53.084;18.206;2023-05-10T07:35:34;4.18;;;2.72;;
23394;SDS011;11870;53.084;18.206;2023-05-10T07:38:00;3.38;;;2.13;;
23394;SDS011;11870;53.084;18.206;2023-05-10T07:40:26;9.18;;;2.00;;
23394;SDS011;11870;53.084;18.206;2023-05-10T07:42:52;6.25;;;2.58;;
23394;SDS011;11870;53.084;18.206;2023-05-10T07:45:18;4.55;;;2.50;;
23394;SDS011;11870;53.084;18.206;2023-05-10T07:47:44;6.45;;;2.40;;
23394;SDS011;11870;53.084;18.206;2023-05-10T07:50:10;16.08;;;3.75;;
23394;SDS011;11870;53.084;18.206;2023-05-10T07:52:36;4.82;;;2.45;;
23394;SDS011;11870;53.084;18.206;2023-05-10T07:55:02;6.20;;;2.55;;
23394;SDS011;11870;53.084;18.206;2023-05-10T07:57:28;3.78;;;2.15;;
23394;SDS011;11870;53.084;18.206;2023-05-10T07:59:54;6.57;;;2.47;;
23394;SDS011;11870;53.084;18.206;2023-05-10T08:02:20;5.15;;;2.30;;
23394;SDS011;11870;53.084;18.206;2023-05-10T08:04:46;6.28;;;2.40;;
23394;SDS011;11870;53.084;18.206;2023-05-10T08:07:12;7.35;;;2.30;;
23394;SDS011;11870;53.084;18.206;2023-05-10T08:09:38;7.05;;;2.13;;
23394;SDS011;11870;53.084;18.206;2023-05-10T08:12:04;4.95;;;2.22;;
23394;SDS011;11870;53.084;18.206;2023-05-10T08:14:30;7.75;;;2.38;;
23394;SDS011;11870;53.084;18.206;2023-05-10T08:16:56;6.28;;;2.25;;
23394;SDS011;11870;53.084;18.206;2023-05-10T08:19:22;6.22;;;2.13;;
23394;SDS011;11870;53.084;18.206;2023-05-10T08:21:49;4.18;;;2.15;;
23394;SDS011;11870;53.084;18.206;2023-05-10T08:24:15;5.63;;;2.30;;
23394;SDS011;11870;53.084;18.206;2023-05-10T08:26:41;7.40;;;2.20;;
23394;SDS011;11870;53.084;18.206;2023-05-10T08:29:07;7.07;;;2.17;;
23394;SDS011;11870;53.084;18.206;2023-05-10T08:31:32;5.20;;;2.00;;
23394;SDS011;11870;53.084;18.206;2023-05-10T08:33:58;3.22;;;2.00;;
23394;SDS011;11870;53.084;18.206;2023-05-10T08:36:25;4.28;;;2.20;;
23394;SDS011;11870;53.084;18.206;2023-05-10T08:38:51;5.97;;;2.47;;
23394;SDS011;11870;53.084;18.206;2023-05-10T08:41:22;3.90;;;2.10;;
23394;SDS011;11870;53.084;18.206;2023-05-10T08:43:52;6.68;;;2.33;;
23394;SDS011;11870;53.084;18.206;2023-05-10T08:46:19;4.82;;;1.92;;
23394;SDS011;11870;53.084;18.206;2023-05-10T08:48:47;6.97;;;2.17;;
23394;SDS011;11870;53.084;18.206;2023-05-10T08:51:17;8.55;;;2.10;;
23394;SDS011;11870;53.084;18.206;2023-05-10T08:53:45;3.75;;;2.20;;
23394;SDS011;11870;53.084;18.206;2023-05-10T08:56:11;6.00;;;2.58;;
23394;SDS011;11870;53.084;18.206;2023-05-10T08:58:37;5.97;;;1.95;;
23394;SDS011;11870;53.084;18.206;2023-05-10T09:01:04;11.27;;;2.15;;
23394;SDS011;11870;53.084;18.206;2023-05-10T09:03:30;10.15;;;3.60;;
23394;SDS011;11870;53.084;18.206;2023-05-10T09:05:57;5.38;;;2.22;;
23394;SDS011;11870;53.084;18.206;2023-05-10T09:08:23;6.20;;;2.13;;
23394;SDS011;11870;53.084;18.206;2023-05-10T09:10:52;5.85;;;2.20;;
23394;SDS011;11870;53.084;18.206;2023-05-10T09:13:21;6.75;;;1.95;;
23394;SDS011;11870;53.084;18.206;2023-05-10T09:15:48;3.08;;;2.10;;
23394;SDS011;11870;53.084;18.206;2023-05-10T09:18:14;6.35;;;3.38;;
23394;SDS011;11870;53.084;18.206;2023-05-10T09:20:40;5.95;;;2.15;;
23394;SDS011;11870;53.084;18.206;2023-05-10T09:23:06;5.18;;;2.03;;
23394;SDS011;11870;53.084;18.206;2023-05-10T09:25:32;8.23;;;2.28;;
23394;SDS011;11870;53.084;18.206;2023-05-10T09:27:59;2.92;;;2.20;;
23394;SDS011;11870;53.084;18.206;2023-05-10T09:30:26;3.20;;;2.20;;
23394;SDS011;11870;53.084;18.206;2023-05-10T09:32:53;5.63;;;2.42;;
23394;SDS011;11870;53.084;18.206;2023-05-10T09:35:20;3.65;;;2.13;;
23394;SDS011;11870;53.084;18.206;2023-05-10T09:37:49;5.85;;;2.33;;
23394;SDS011;11870;53.084;18.206;2023-05-10T09:40:22;8.23;;;2.20;;
23394;SDS011;11870;53.084;18.206;2023-05-10T09:45:20;4.07;;;2.25;;
23394;SDS011;11870;53.084;18.206;2023-05-10T09:47:48;3.92;;;2.10;;
23394;SDS011;11870;53.084;18.206;2023-05-10T09:50:14;3.63;;;2.55;;
23394;SDS011;11870;53.084;18.206;2023-05-10T09:52:47;4.75;;;2.28;;
23394;SDS011;11870;53.084;18.206;2023-05-10T09:55:20;8.05;;;2.40;;
23394;SDS011;11870;53.084;18.206;2023-05-10T09:58:00;6.00;;;2.28;;
23394;SDS011;11870;53.084;18.206;2023-05-10T10:00:27;3.92;;;2.40;;
23394;SDS011;11870;53.084;18.206;2023-05-10T10:02:57;8.05;;;2.70;;
23394;SDS011;11870;53.084;18.206;2023-05-10T10:05:33;5.20;;;2.38;;
23394;SDS011;11870;53.084;18.206;2023-05-10T10:08:04;3.40;;;2.50;;
23394;SDS011;11870;53.084;18.206;2023-05-10T10:10:31;5.25;;;2.75;;
23394;SDS011;11870;53.084;18.206;2023-05-10T10:12:58;7.80;;;2.85;;
23394;SDS011;11870;53.084;18.206;2023-05-10T10:15:25;4.55;;;3.10;;
23394;SDS011;11870;53.084;18.206;2023-05-10T10:17:52;10.02;;;2.50;;
23394;SDS011;11870;53.084;18.206;2023-05-10T10:20:19;6.50;;;2.50;;
23394;SDS011;11870;53.084;18.206;2023-05-10T10:22:47;7.07;;;2.38;;
23394;SDS011;11870;53.084;18.206;2023-05-10T10:25:14;5.57;;;2.58;;
23394;SDS011;11870;53.084;18.206;2023-05-10T10:35:43;5.63;;;3.00;;
23394;SDS011;11870;53.084;18.206;2023-05-10T10:38:14;3.85;;;2.67;;
23394;SDS011;11870;53.084;18.206;2023-05-10T10:40:41;11.02;;;2.45;;
23394;SDS011;11870;53.084;18.206;2023-05-10T10:43:26;12.75;;;2.60;;
23394;SDS011;11870;53.084;18.206;2023-05-10T10:46:09;14.13;;;3.00;;
23394;SDS011;11870;53.084;18.206;2023-05-10T10:48:36;12.93;;;3.10;;
23394;SDS011;11870;53.084;18.206;2023-05-10T10:51:02;5.88;;;2.40;;
23394;SDS011;11870;53.084;18.206;2023-05-10T10:53:28;8.75;;;2.33;;
23394;SDS011;11870;53.084;18.206;2023-05-10T10:56:10;3.88;;;2.40;;
23394;SDS011;11870;53.084;18.206;2023-05-10T10:58:39;9.93;;;2.92;;
23394;SDS011;11870;53.084;18.206;2023-05-10T11:01:12;9.20;;;2.60;;
23394;SDS011;11870;53.084;18.206;2023-05-10T11:03:41;21.17;;;3.10;;
23394;SDS011;11870;53.084;18.206;2023-05-10T11:06:29;7.78;;;2.38;;
23394;SDS011;11870;53.084;18.206;2023-05-10T11:09:06;6.53;;;3.13;;
23394;SDS011;11870;53.084;18.206;2023-05-10T11:11:34;10.07;;;3.10;;
23394;SDS011;11870;53.084;18.206;2023-05-10T11:14:06;5.38;;;2.47;;
23394;SDS011;11870;53.084;18.206;2023-05-10T11:16:40;11.25;;;2.67;;
23394;SDS011;11870;53.084;18.206;2023-05-10T11:19:09;5.28;;;2.50;;
23394;SDS011;11870;53.084;18.206;2023-05-10T11:21:49;6.68;;;2.50;;
23394;SDS011;11870;53.084;18.206;2023-05-10T11:24:18;10.73;;;2.47;;
23394;SDS011;11870;53.084;18.206;2023-05-10T11:26:45;5.85;;;2.15;;
23394;SDS011;11870;53.084;18.206;2023-05-10T11:29:12;8.73;;;2.40;;
23394;SDS011;11870;53.084;18.206;2023-05-10T11:31:45;7.50;;;2.42;;
23394;SDS011;11870;53.084;18.206;2023-05-10T11:34:22;4.80;;;2.25;;
23394;SDS011;11870;53.084;18.206;2023-05-10T11:36:52;3.67;;;2.58;;
23394;SDS011;11870;53.084;18.206;2023-05-10T11:39:20;4.25;;;2.30;;
23394;SDS011;11870;53.084;18.206;2023-05-10T11:41:48;5.80;;;2.63;;
23394;SDS011;11870;53.084;18.206;2023-05-10T11:44:14;3.20;;;2.20;;
23394;SDS011;11870;53.084;18.206;2023-05-10T11:46:40;8.18;;;3.63;;
23394;SDS011;11870;53.084;18.206;2023-05-10T11:49:06;9.13;;;4.05;;
23394;SDS011;11870;53.084;18.206;2023-05-10T11:51:35;7.40;;;3.72;;
23394;SDS011;11870;53.084;18.206;2023-05-10T11:54:05;8.40;;;2.35;;
23394;SDS011;11870;53.084;18.206;2023-05-10T11:56:39;17.02;;;3.90;;
23394;SDS011;11870;53.084;18.206;2023-05-10T11:59:06;7.45;;;3.38;;
23394;SDS011;11870;53.084;18.206;2023-05-10T12:01:33;7.50;;;2.50;;
23394;SDS011;11870;53.084;18.206;2023-05-10T12:03:59;6.07;;;2.47;;
23394;SDS011;11870;53.084;18.206;2023-05-10T12:06:26;12.15;;;4.93;;
23394;SDS011;11870;53.084;18.206;2023-05-10T12:08:54;4.10;;;2.50;;
23394;SDS011;11870;53.084;18.206;2023-05-10T12:11:23;6.70;;;2.60;;
23394;SDS011;11870;53.084;18.206;2023-05-10T12:13:50;5.07;;;2.55;;
23394;SDS011;11870;53.084;18.206;2023-05-10T12:16:17;6.63;;;2.40;;
23394;SDS011;11870;53.084;18.206;2023-05-10T12:18:45;5.78;;;2.20;;
23394;SDS011;11870;53.084;18.206;2023-05-10T12:21:14;6.00;;;2.30;;
23394;SDS011;11870;53.084;18.206;2023-05-10T12:23:41;7.55;;;2.33;;
23394;SDS011;11870;53.084;18.206;2023-05-10T12:26:10;4.28;;;2.63;;
23394;SDS011;11870;53.084;18.206;2023-05-10T12:28:37;10.90;;;2.88;;
23394;SDS011;11870;53.084;18.206;2023-05-10T12:31:04;9.20;;;2.00;;
23394;SDS011;11870;53.084;18.206;2023-05-10T12:33:35;8.98;;;2.20;;
23394;SDS011;11870;53.084;18.206;2023-05-10T12:36:04;3.97;;;2.00;;
23394;SDS011;11870;53.084;18.206;2023-05-10T12:38:35;7.57;;;2.00;;
23394;SDS011;11870;53.084;18.206;2023-05-10T12:41:08;6.35;;;2.63;;
23394;SDS011;11870;53.084;18.206;2023-05-10T12:43:36;3.95;;;1.98;;
23394;SDS011;11870;53.084;18.206;2023-05-10T12:46:06;3.70;;;2.28;;
23394;SDS011;11870;53.084;18.206;2023-05-10T12:48:34;9.60;;;2.30;;
23394;SDS011;11870;53.084;18.206;2023-05-10T12:51:01;9.10;;;2.15;;
23394;SDS011;11870;53.084;18.206;2023-05-10T12:53:28;5.28;;;2.17;;
23394;SDS011;11870;53.084;18.206;2023-05-10T12:55:54;11.50;;;2.38;;
23394;SDS011;11870;53.084;18.206;2023-05-10T12:58:20;5.88;;;1.90;;
23394;SDS011;11870;53.084;18.206;2023-05-10T13:00:46;6.90;;;2.15;;
23394;SDS011;11870;53.084;18.206;2023-05-10T13:03:13;12.00;;;2.50;;
23394;SDS011;11870;53.084;18.206;2023-05-10T13:05:39;9.65;;;2.30;;
23394;SDS011;11870;53.084;18.206;2023-05-10T13:08:05;4.32;;;2.35;;
23394;SDS011;11870;53.084;18.206;2023-05-10T13:10:31;2.83;;;1.90;;
23394;SDS011;11870;53.084;18.206;2023-05-10T13:12:58;4.88;;;2.20;;
23394;SDS011;11870;53.084;18.206;2023-05-10T13:15:24;6.07;;;2.63;;
23394;SDS011;11870;53.084;18.206;2023-05-10T13:17:51;6.53;;;2.63;;
23394;SDS011;11870;53.084;18.206;2023-05-10T13:20:17;10.38;;;2.30;;
23394;SDS011;11870;53.084;18.206;2023-05-10T13:22:43;9.63;;;2.40;;
23394;SDS011;11870;53.084;18.206;2023-05-10T13:25:10;4.10;;;2.35;;
23394;SDS011;11870;53.084;18.206;2023-05-10T13:27:37;3.65;;;2.30;;
23394;SDS011;11870;53.084;18.206;2023-05-10T13:30:09;7.07;;;2.28;;
23394;SDS011;11870;53.084;18.206;2023-05-10T13:32:36;3.90;;;2.40;;
23394;SDS011;11870;53.084;18.206;2023-05-10T13:35:02;11.45;;;2.80;;
23394;SDS011;11870;53.084;18.206;2023-05-10T13:37:29;11.90;;;2.45;;
23394;SDS011;11870;53.084;18.206;2023-05-10T13:39:56;3.25;;;2.08;;
23394;SDS011;11870;53.084;18.206;2023-05-10T13:42:22;6.32;;;2.33;;
23394;SDS011;11870;53.084;18.206;2023-05-10T13:44:49;6.55;;;2.47;;
23394;SDS011;11870;53.084;18.206;2023-05-10T13:47:15;4.90;;;2.25;;
23394;SDS011;11870;53.084;18.206;2023-05-10T13:49:41;3.20;;;2.25;;
23394;SDS011;11870;53.084;18.206;2023-05-10T13:52:07;6.45;;;2.63;;
23394;SDS011;11870;53.084;18.206;2023-05-10T13:54:35;6.85;;;2.30;;
23394;SDS011;11870;53.084;18.206;2023-05-10T13:57:03;3.72;;;2.45;;
23394;SDS011;11870;53.084;18.206;2023-05-10T13:59:29;4.40;;;2.20;;
23394;SDS011;11870;53.084;18.206;2023-05-10T14:01:59;5.25;;;2.63;;
23394;SDS011;11870;53.084;18.206;2023-05-10T14:04:28;4.53;;;2.63;;
23394;SDS011;11870;53.084;18.206;2023-05-10T14:06:54;6.05;;;2.58;;
23394;SDS011;11870;53.084;18.206;2023-05-10T14:09:20;5.50;;;2.55;;
23394;SDS011;11870;53.084;18.206;2023-05-10T14:11:46;8.30;;;2.65;;
23394;SDS011;11870;53.084;18.206;2023-05-10T14:14:12;7.63;;;2.58;;
23394;SDS011;11870;53.084;18.206;2023-05-10T14:16:42;7.22;;;2.30;;
23394;SDS011;11870;53.084;18.206;2023-05-10T14:19:09;6.47;;;2.30;;
23394;SDS011;11870;53.084;18.206;2023-05-10T14:21:35;5.45;;;2.42;;
23394;SDS011;11870;53.084;18.206;2023-05-10T14:24:01;7.25;;;2.60;;
23394;SDS011;11870;53.084;18.206;2023-05-10T14:26:28;6.22;;;2.65;;
23394;SDS011;11870;53.084;18.206;2023-05-10T14:28:53;7.78;;;2.70;;
23394;SDS011;11870;53.084;18.206;2023-05-10T14:31:20;5.55;;;2.45;;
23394;SDS011;11870;53.084;18.206;2023-05-10T14:33:46;5.35;;;2.35;;
23394;SDS011;11870;53.084;18.206;2023-05-10T14:36:12;6.10;;;2.45;;
23394;SDS011;11870;53.084;18.206;2023-05-10T14:38:39;4.53;;;2.25;;
23394;SDS011;11870;53.084;18.206;2023-05-10T14:41:06;4.93;;;2.40;;
23394;SDS011;11870;53.084;18.206;2023-05-10T14:43:32;8.45;;;2.72;;
23394;SDS011;11870;53.084;18.206;2023-05-10T14:45:58;5.97;;;2.80;;
23394;SDS011;11870;53.084;18.206;2023-05-10T14:48:24;6.28;;;2.53;;
23394;SDS011;11870;53.084;18.206;2023-05-10T14:50:50;7.05;;;2.33;;
23394;SDS011;11870;53.084;18.206;2023-05-10T14:53:17;4.35;;;2.65;;
23394;SDS011;11870;53.084;18.206;2023-05-10T14:55:43;5.45;;;2.65;;